Time;durP1;ratioP1;P1;durP2;ratioP2;P2;SDS_P1;SDS_P2;PMS_P1;PMS_P2;Temp;Humidity;BMP_temperature;BMP_pressure;BME280_temperature;BME280_humidity;BME280_pressure;Samples;Min_cycle;Max_cycle;Signal;HPM_P1;HPM_P2
2023/03/04 00:01:42;;;;;;;4.10;1.00;;;;;;;4.38;100.00;102633.72;4984684;28;20572;-77
2023/03/04 00:04:08;;;;;;;3.20;1.30;;;;;;;4.38;100.00;102631.09;5003643;28;20068;-77
2023/03/04 00:06:33;;;;;;;8.45;1.00;;;;;;;4.40;100.00;102637.22;5005745;28;20041;-77
2023/03/04 00:09:00;;;;;;;11.73;1.48;;;;;;;4.41;100.00;102632.88;5005070;28;20112;-77
2023/03/04 00:11:25;;;;;;;5.43;1.25;;;;;;;4.40;100.00;102626.75;4984670;28;20099;-77
2023/03/04 00:13:51;;;;;;;6.63;1.48;;;;;;;4.41;100.00;102643.38;5004743;28;20540;-77
2023/03/04 00:16:17;;;;;;;7.97;1.20;;;;;;;4.40;100.00;102632.00;4982999;28;20080;-77
2023/03/04 00:18:42;;;;;;;5.20;1.33;;;;;;;4.40;100.00;102624.13;5005041;28;20052;-77
2023/03/04 00:21:08;;;;;;;3.28;1.23;;;;;;;4.40;100.00;102631.13;5002359;28;20030;-77
2023/03/04 00:23:33;;;;;;;3.65;1.10;;;;;;;4.39;100.00;102621.47;5003875;28;20030;-77
2023/03/04 00:25:59;;;;;;;5.63;1.38;;;;;;;4.39;100.00;102629.34;5004481;28;20559;-77
2023/03/04 00:28:24;;;;;;;5.57;1.02;;;;;;;4.40;100.00;102623.25;4984642;28;20064;-77
2023/03/04 00:30:50;;;;;;;4.55;0.85;;;;;;;4.40;100.00;102624.13;4987069;28;20572;-76
2023/03/04 00:33:16;;;;;;;5.53;0.98;;;;;;;4.41;100.00;102630.25;4984039;28;20034;-77
2023/03/04 00:35:41;;;;;;;4.05;0.82;;;;;;;4.40;100.00;102623.25;5004472;28;20165;-77
2023/03/04 00:38:07;;;;;;;3.90;1.25;;;;;;;4.39;100.00;102619.75;5005916;28;20046;-77
2023/03/04 00:40:32;;;;;;;4.38;1.20;;;;;;;4.38;100.00;102617.09;4983304;28;20045;-78
2023/03/04 00:42:58;;;;;;;5.40;1.30;;;;;;;4.39;100.00;102614.50;4986290;28;21167;-77
2023/03/04 00:45:24;;;;;;;5.20;1.15;;;;;;;4.38;100.00;102614.47;5007235;28;20439;-77
2023/03/04 00:47:49;;;;;;;7.28;1.10;;;;;;;4.39;100.00;102610.97;4962413;28;20438;-77
2023/03/04 00:50:15;;;;;;;5.72;1.17;;;;;;;4.40;100.00;102611.00;4965691;28;20408;-77
2023/03/04 00:52:40;;;;;;;4.65;1.10;;;;;;;4.40;100.00;102612.75;5006632;28;20256;-77
2023/03/04 00:55:07;;;;;;;6.22;1.00;;;;;;;4.40;100.00;102611.00;5007524;28;20173;-77
2023/03/04 00:57:33;;;;;;;7.00;1.27;;;;;;;4.40;100.00;102621.50;5006958;28;20117;-77
2023/03/04 00:59:59;;;;;;;3.63;1.20;;;;;;;4.41;100.00;102610.13;5008587;28;20179;-77
2023/03/04 01:02:25;;;;;;;7.55;1.70;;;;;;;4.38;100.00;102611.84;5006989;28;20701;-77
2023/03/04 01:04:50;;;;;;;2.95;0.98;;;;;;;4.37;100.00;102618.84;5005218;28;20048;-78
2023/03/04 01:07:16;;;;;;;4.70;0.80;;;;;;;4.36;100.00;102619.69;5007308;28;20065;-77
2023/03/04 01:09:42;;;;;;;2.80;1.10;;;;;;;4.35;100.00;102616.22;5007165;28;20041;-78
2023/03/04 01:12:07;;;;;;;3.78;0.98;;;;;;;4.37;100.00;102615.34;5005103;28;20139;-77
2023/03/04 01:14:33;;;;;;;4.45;1.00;;;;;;;4.37;100.00;102611.00;5005602;28;20033;-77
2023/03/04 01:16:58;;;;;;;6.38;1.15;;;;;;;4.37;100.00;102604.84;5007335;28;20273;-77
2023/03/04 01:19:24;;;;;;;6.25;1.05;;;;;;;4.38;100.00;102604.88;5002766;28;20037;-77
2023/03/04 01:21:49;;;;;;;5.70;1.38;;;;;;;4.38;100.00;102599.63;5006820;28;20068;-76
2023/03/04 01:24:18;;;;;;;3.83;0.80;;;;;;;4.40;100.00;102604.91;5002886;28;20874;-77
2023/03/04 01:26:43;;;;;;;5.00;0.80;;;;;;;4.40;100.00;102600.50;4982912;28;20488;-77
2023/03/04 01:29:09;;;;;;;3.25;0.77;;;;;;;4.41;100.00;102599.66;5006651;28;20050;-76
2023/03/04 01:31:34;;;;;;;2.95;1.00;;;;;;;4.41;100.00;102601.41;4983023;28;20036;-77
2023/03/04 01:34:00;;;;;;;3.67;1.23;;;;;;;4.41;100.00;102596.16;5007433;28;20102;-77
2023/03/04 01:36:25;;;;;;;4.25;1.00;;;;;;;4.40;100.00;102592.66;5005200;28;20038;-77
2023/03/04 01:38:51;;;;;;;3.25;0.85;;;;;;;4.38;100.00;102589.13;5007116;28;20392;-77
2023/03/04 01:41:22;;;;;;;6.28;1.20;;;;;;;4.37;100.00;102579.53;4973690;28;20048;-76
2023/03/04 01:43:48;;;;;;;1.58;0.80;;;;;;;4.35;100.00;102583.84;5005930;28;20599;-76
2023/03/04 01:46:13;;;;;;;3.15;1.10;;;;;;;4.34;100.00;102590.84;4979849;28;20071;-77
2023/03/04 01:48:40;;;;;;;5.15;0.90;;;;;;;4.33;100.00;102578.63;4981792;28;20033;-77
2023/03/04 01:51:11;;;;;;;5.47;1.20;;;;;;;4.31;100.00;102575.06;5005887;28;20266;-77
2023/03/04 01:53:37;;;;;;;8.93;1.50;;;;;;;4.30;100.00;102570.72;4964489;28;20037;-76
2023/03/04 01:56:23;;;;;;;6.75;1.23;;;;;;;4.29;100.00;102566.34;4989666;28;20393;-76
2023/03/04 01:59:07;;;;;;;6.40;1.00;;;;;;;4.29;100.00;102565.44;4971402;28;20048;-77
2023/03/04 02:01:33;;;;;;;2.67;1.08;;;;;;;4.28;100.00;102563.69;4988011;28;20057;-77
2023/03/04 02:03:59;;;;;;;7.18;1.02;;;;;;;4.29;100.00;102560.19;4988135;28;20053;-76
2023/03/04 02:06:24;;;;;;;5.57;0.93;;;;;;;4.31;100.00;102564.59;5008008;28;20088;-77
2023/03/04 02:08:50;;;;;;;2.33;1.05;;;;;;;4.32;100.00;102557.63;4986226;28;20103;-77
2023/03/04 02:11:15;;;;;;;2.40;1.00;;;;;;;4.33;100.00;102556.75;5008464;28;20052;-77
2023/03/04 02:13:41;;;;;;;8.70;1.20;;;;;;;4.32;100.00;102549.75;4966287;28;20516;-76
2023/03/04 02:16:06;;;;;;;1.25;0.73;;;;;;;4.33;100.00;102546.25;5004985;28;21631;-77
2023/03/04 02:18:32;;;;;;;2.65;1.13;;;;;;;4.30;100.00;102547.09;4982367;28;20065;-77
2023/03/04 02:21:04;;;;;;;3.88;1.00;;;;;;;4.30;100.00;102546.25;4971558;28;20724;-77
2023/03/04 02:24:14;;;;;;;6.17;1.17;;;;;;;4.28;100.00;102542.72;4971381;28;20051;-76
2023/03/04 02:26:42;;;;;;;1.63;0.82;;;;;;;4.27;100.00;102540.97;4965974;28;20308;-77
2023/03/04 02:29:09;;;;;;;4.40;1.27;;;;;;;4.27;100.00;102540.97;4983532;28;20041;-77
2023/03/04 02:31:40;;;;;;;5.63;1.20;;;;;;;4.25;100.00;102543.56;4990500;28;20045;-77
2023/03/04 02:34:10;;;;;;;4.43;1.58;;;;;;;4.24;100.00;102526.06;4987756;28;20044;-77
2023/03/04 02:36:36;;;;;;;6.32;1.13;;;;;;;4.26;100.00;102533.97;4986065;28;20515;-77
2023/03/04 02:39:20;;;;;;;3.97;1.77;;;;;;;4.25;100.00;102530.44;4986590;28;20060;-77
2023/03/04 02:41:47;;;;;;;5.50;1.17;;;;;;;4.25;100.00;102526.97;4980031;28;20309;-77
2023/03/04 02:44:19;;;;;;;3.33;0.95;;;;;;;4.25;100.00;102529.59;4988047;28;20048;-77
2023/03/04 02:46:45;;;;;;;9.27;1.20;;;;;;;4.25;100.00;102527.81;4999154;28;20061;-77
2023/03/04 02:49:11;;;;;;;5.38;1.00;;;;;;;4.28;100.00;102516.50;5005081;28;20048;-77
2023/03/04 02:51:36;;;;;;;1.48;0.80;;;;;;;4.26;100.00;102521.75;5005780;28;20034;-77
2023/03/04 02:54:02;;;;;;;7.60;1.77;;;;;;;4.26;100.00;102510.38;5005634;28;20033;-77
2023/03/04 02:56:28;;;;;;;4.15;1.42;;;;;;;4.26;100.00;102518.22;5006165;28;21666;-77
2023/03/04 02:58:53;;;;;;;2.95;0.80;;;;;;;4.27;100.00;102512.13;4982534;28;20617;-77
2023/03/04 03:01:19;;;;;;;4.63;1.65;;;;;;;4.27;100.00;102512.13;5005167;28;20515;-77
2023/03/04 03:03:45;;;;;;;3.70;0.90;;;;;;;4.27;100.00;102507.75;4948924;28;20045;-77
2023/03/04 03:06:10;;;;;;;3.15;1.08;;;;;;;4.27;100.00;102509.50;5003529;28;20048;-76
2023/03/04 03:08:36;;;;;;;1.67;0.82;;;;;;;4.28;100.00;102496.41;5006298;28;20029;-77
2023/03/04 03:11:02;;;;;;;4.88;1.60;;;;;;;4.30;100.00;102501.66;5005093;28;20080;-77
2023/03/04 03:13:28;;;;;;;4.95;1.20;;;;;;;4.28;100.00;102501.66;4985722;28;20428;-77
2023/03/04 03:15:53;;;;;;;4.45;1.10;;;;;;;4.31;100.00;102503.41;5001195;28;20476;-78
2023/03/04 03:18:19;;;;;;;5.50;1.20;;;;;;;4.31;100.00;102495.56;5004265;28;20037;-76
2023/03/04 03:20:45;;;;;;;2.58;0.93;;;;;;;4.31;100.00;102498.19;5005186;28;20037;-77
2023/03/04 03:23:10;;;;;;;2.22;0.95;;;;;;;4.32;100.00;102494.69;5004909;28;20557;-77
2023/03/04 03:25:36;;;;;;;4.38;1.08;;;;;;;4.32;100.00;102499.94;4963711;28;20128;-77
2023/03/04 03:28:01;;;;;;;3.15;1.00;;;;;;;4.33;100.00;102499.06;4984762;28;20026;-76
2023/03/04 03:30:27;;;;;;;4.85;1.02;;;;;;;4.33;100.00;102499.06;5003560;28;20037;-76
2023/03/04 03:32:53;;;;;;;3.88;0.85;;;;;;;4.33;100.00;102504.28;4955482;28;20526;-77
2023/03/04 03:35:18;;;;;;;4.07;1.20;;;;;;;4.33;100.00;102493.81;5004575;28;20064;-77
2023/03/04 03:37:44;;;;;;;5.22;1.10;;;;;;;4.34;100.00;102500.81;5005531;28;20053;-77
2023/03/04 03:40:10;;;;;;;3.47;1.02;;;;;;;4.32;100.00;102485.03;5006216;28;20038;-77
2023/03/04 03:42:36;;;;;;;4.47;1.15;;;;;;;4.34;100.00;102488.59;5004938;28;20802;-77
2023/03/04 03:45:01;;;;;;;3.55;1.15;;;;;;;4.33;100.00;102489.44;5005454;28;20129;-77
2023/03/04 03:47:27;;;;;;;2.45;1.00;;;;;;;4.33;100.00;102488.56;5004611;28;20037;-77
2023/03/04 03:49:53;;;;;;;3.40;1.00;;;;;;;4.34;100.00;102485.06;5000559;28;20478;-77
2023/03/04 03:52:18;;;;;;;3.67;0.93;;;;;;;4.34;100.00;102480.72;4985059;28;20124;-77
2023/03/04 03:54:44;;;;;;;2.63;0.93;;;;;;;4.35;100.00;102484.19;5005373;28;21609;-77
2023/03/04 03:57:09;;;;;;;4.47;1.17;;;;;;;4.36;100.00;102478.06;4981125;28;20034;-77
2023/03/04 03:59:35;;;;;;;6.68;1.13;;;;;;;4.35;100.00;102471.97;4968180;28;20038;-76
2023/03/04 04:02:00;;;;;;;3.08;1.15;;;;;;;4.37;100.00;102476.34;4984845;28;22274;-77
2023/03/04 04:04:26;;;;;;;4.10;1.00;;;;;;;4.37;100.00;102474.63;5005262;28;20140;-77
2023/03/04 04:06:51;;;;;;;5.22;1.35;;;;;;;4.38;100.00;102472.84;4985348;28;21855;-77
2023/03/04 04:09:17;;;;;;;4.45;1.13;;;;;;;4.37;100.00;102474.63;5003945;28;20049;-77
2023/03/04 04:11:42;;;;;;;3.50;1.30;;;;;;;4.38;100.00;102465.88;4984535;28;20042;-77
2023/03/04 04:14:10;;;;;;;3.80;1.35;;;;;;;4.39;100.00;102465.00;5004436;28;20185;-76
2023/03/04 04:16:36;;;;;;;4.40;1.38;;;;;;;4.40;100.00;102472.00;5008617;28;20041;-77
2023/03/04 04:19:02;;;;;;;4.47;0.93;;;;;;;4.40;100.00;102464.13;4987822;28;20041;-77
2023/03/04 04:21:27;;;;;;;3.45;1.00;;;;;;;4.41;100.00;102460.63;5009499;28;20116;-77
2023/03/04 04:23:53;;;;;;;3.70;0.90;;;;;;;4.42;100.00;102454.53;5010715;28;20041;-78
2023/03/04 04:26:18;;;;;;;5.40;1.05;;;;;;;4.42;100.00;102458.91;5008282;28;20341;-77
2023/03/04 04:28:44;;;;;;;3.10;0.70;;;;;;;4.42;100.00;102451.03;5009074;28;20041;-77
2023/03/04 04:31:09;;;;;;;2.22;0.80;;;;;;;4.45;100.00;102465.03;4957327;28;20512;-77
2023/03/04 04:33:35;;;;;;;0.98;0.98;;;;;;;4.45;100.00;102466.78;5008355;28;20638;-77
2023/03/04 04:36:02;;;;;;;2.60;0.90;;;;;;;4.45;100.00;102459.81;4968550;28;20184;-77
2023/03/04 04:38:27;;;;;;;2.95;0.90;;;;;;;4.45;100.00;102462.44;4984696;28;20551;-77
2023/03/04 04:40:56;;;;;;;3.63;0.85;;;;;;;4.44;100.00;102458.06;4987380;28;20045;-77
2023/03/04 04:43:21;;;;;;;4.93;0.90;;;;;;;4.43;100.00;102466.78;5007550;28;20038;-77
2023/03/04 04:45:47;;;;;;;1.33;1.05;;;;;;;4.43;100.00;102468.53;5008972;28;20034;-77
2023/03/04 04:48:12;;;;;;;3.00;0.80;;;;;;;4.42;100.00;102461.53;4986991;28;20314;-77
2023/03/04 04:50:37;;;;;;;1.58;1.08;;;;;;;4.40;100.00;102464.13;5007976;28;20042;-77
2023/03/04 04:53:03;;;;;;;3.15;1.00;;;;;;;4.39;100.00;102464.13;5007603;28;20388;-77
2023/03/04 04:55:28;;;;;;;2.63;0.77;;;;;;;4.38;100.00;102455.38;4984770;28;20401;-77
2023/03/04 04:57:54;;;;;;;1.90;0.98;;;;;;;4.40;100.00;102458.03;4988668;28;20080;-77
2023/03/04 05:00:20;;;;;;;3.55;0.80;;;;;;;4.40;100.00;102468.53;5000437;28;20044;-77
2023/03/04 05:02:46;;;;;;;3.80;0.80;;;;;;;4.40;100.00;102471.13;5008813;28;20052;-77
2023/03/04 05:05:12;;;;;;;3.05;0.73;;;;;;;4.39;100.00;102470.25;4984850;28;20903;-77
2023/03/04 05:07:37;;;;;;;2.58;0.70;;;;;;;4.41;100.00;102465.88;5008820;28;20042;-77
2023/03/04 05:10:03;;;;;;;1.35;0.70;;;;;;;4.41;100.00;102476.38;5007555;28;20037;-77
2023/03/04 05:12:29;;;;;;;2.90;0.80;;;;;;;4.39;100.00;102470.25;5009208;28;20037;-77
2023/03/04 05:14:54;;;;;;;2.03;0.80;;;;;;;4.37;100.00;102469.38;5007645;28;20041;-78
2023/03/04 05:17:20;;;;;;;2.00;0.80;;;;;;;4.31;100.00;102458.84;5008343;28;20048;-78
2023/03/04 05:19:46;;;;;;;2.17;0.80;;;;;;;4.23;100.00;102457.91;4972489;28;20915;-78
2023/03/04 05:22:12;;;;;;;5.05;0.80;;;;;;;4.13;100.00;102455.22;4987743;28;20203;-77
2023/03/04 05:24:37;;;;;;;2.88;0.80;;;;;;;4.08;100.00;102456.91;4985484;28;20056;-77
2023/03/04 05:27:03;;;;;;;1.00;0.63;;;;;;;4.02;100.00;102455.13;5005724;28;20034;-77
2023/03/04 05:29:28;;;;;;;3.42;0.80;;;;;;;4.01;100.00;102447.25;5006815;28;20394;-77
2023/03/04 05:31:54;;;;;;;2.40;0.80;;;;;;;3.98;100.00;102457.72;4986079;28;20026;-77
2023/03/04 05:34:19;;;;;;;2.67;0.80;;;;;;;3.98;100.00;102455.09;4968537;28;20037;-77
2023/03/04 05:36:45;;;;;;;3.63;0.85;;;;;;;3.98;100.00;102460.34;5007264;28;21769;-77
2023/03/04 05:39:11;;;;;;;1.27;0.80;;;;;;;3.98;100.00;102449.84;4982749;28;20192;-76
2023/03/04 05:41:36;;;;;;;1.85;0.77;;;;;;;4.00;100.00;102448.13;4956710;28;20056;-77
2023/03/04 05:44:02;;;;;;;3.55;1.08;;;;;;;4.00;100.00;102446.38;4987476;28;20048;-77
2023/03/04 05:46:28;;;;;;;3.33;0.80;;;;;;;4.03;100.00;102442.91;4981206;28;20037;-77
2023/03/04 05:48:53;;;;;;;6.03;1.10;;;;;;;4.03;100.00;102450.78;4990301;28;20041;-77
2023/03/04 05:51:20;;;;;;;3.50;1.15;;;;;;;4.05;100.00;102443.78;5006790;28;20106;-77
2023/03/04 05:53:46;;;;;;;4.55;1.42;;;;;;;4.06;100.00;102448.16;4987170;28;20049;-77
2023/03/04 05:56:16;;;;;;;3.60;1.10;;;;;;;4.10;100.00;102444.72;4983004;28;20041;-77
2023/03/04 05:58:42;;;;;;;2.63;0.90;;;;;;;4.11;100.00;102446.47;5007002;28;20037;-77
2023/03/04 06:01:08;;;;;;;1.00;0.82;;;;;;;4.12;100.00;102452.56;5005782;28;20034;-77
2023/03/04 06:03:34;;;;;;;4.40;1.00;;;;;;;4.12;100.00;102448.22;4970301;28;20226;-77
2023/03/04 06:06:00;;;;;;;4.60;1.00;;;;;;;4.12;100.00;102445.59;5005078;28;20037;-77
2023/03/04 06:08:26;;;;;;;2.83;1.25;;;;;;;4.13;100.00;102438.63;4982216;28;20037;-77
2023/03/04 06:10:54;;;;;;;2.63;1.08;;;;;;;4.13;100.00;102443.88;5006637;28;20034;-77
2023/03/04 06:13:19;;;;;;;5.32;1.20;;;;;;;4.12;100.00;102452.56;4984789;28;20034;-77
2023/03/04 06:15:45;;;;;;;6.40;1.20;;;;;;;4.13;100.00;102449.09;4980960;28;20827;-77
2023/03/04 06:18:10;;;;;;;4.38;1.10;;;;;;;4.13;100.00;102449.97;4966298;28;20128;-77
2023/03/04 06:20:36;;;;;;;4.28;1.02;;;;;;;4.14;100.00;102456.97;4967607;28;20546;-77
2023/03/04 06:23:03;;;;;;;4.75;1.17;;;;;;;4.15;100.00;102450.84;5004859;28;20045;-77
2023/03/04 06:25:29;;;;;;;2.10;0.95;;;;;;;4.16;100.00;102460.50;4990547;28;20065;-77
2023/03/04 06:27:54;;;;;;;2.90;1.27;;;;;;;4.19;100.00;102467.47;4988371;28;20174;-77
2023/03/04 06:30:20;;;;;;;2.55;1.13;;;;;;;4.19;100.00;102460.50;5006406;28;20044;-76
2023/03/04 06:32:46;;;;;;;3.08;0.98;;;;;;;4.20;100.00;102469.25;5005226;28;20480;-77
2023/03/04 06:35:13;;;;;;;6.55;1.48;;;;;;;4.19;100.00;102471.00;5006080;28;20041;-77
2023/03/04 06:37:39;;;;;;;3.42;1.45;;;;;;;4.18;100.00;102473.59;5006768;28;20104;-77
2023/03/04 06:40:06;;;;;;;3.72;0.95;;;;;;;4.17;100.00;102469.22;4980816;28;20053;-77
2023/03/04 06:42:33;;;;;;;3.15;0.98;;;;;;;4.17;100.00;102472.72;4985537;28;20430;-77
2023/03/04 06:44:58;;;;;;;1.77;1.08;;;;;;;4.15;100.00;102471.81;4969827;28;20032;-77
2023/03/04 06:47:24;;;;;;;4.00;1.05;;;;;;;4.15;100.00;102466.56;5005471;28;20042;-77
2023/03/04 06:49:49;;;;;;;2.78;1.08;;;;;;;4.15;100.00;102466.56;4989414;28;20052;-76
2023/03/04 06:52:15;;;;;;;3.80;1.00;;;;;;;4.13;100.00;102463.06;4963812;28;20071;-76
2023/03/04 06:54:40;;;;;;;2.88;0.80;;;;;;;4.12;100.00;102461.31;5005684;28;20117;-76
2023/03/04 06:57:06;;;;;;;2.63;1.00;;;;;;;4.13;100.00;102464.84;5007672;28;20114;-77
2023/03/04 06:59:35;;;;;;;2.72;0.95;;;;;;;4.11;100.00;102462.19;5008227;28;21542;-77
2023/03/04 07:02:01;;;;;;;1.63;0.90;;;;;;;4.13;100.00;102467.47;5006969;28;20041;-76
2023/03/04 07:04:26;;;;;;;2.20;0.90;;;;;;;4.11;100.00;102462.19;5006848;28;20550;-76
2023/03/04 07:06:52;;;;;;;1.33;0.77;;;;;;;4.13;100.00;102464.84;4986033;28;20056;-77
2023/03/04 07:09:17;;;;;;;4.45;1.13;;;;;;;4.13;100.00;102463.06;4972950;28;20040;-77
2023/03/04 07:11:43;;;;;;;1.30;1.20;;;;;;;4.13;100.00;102459.59;5006396;28;20045;-77
2023/03/04 07:14:09;;;;;;;2.42;0.85;;;;;;;4.16;100.00;102470.97;5008493;28;20030;-77
2023/03/04 07:16:34;;;;;;;2.80;1.17;;;;;;;4.17;100.00;102467.47;4987036;28;20115;-76
2023/03/04 07:19:00;;;;;;;3.60;0.95;;;;;;;4.20;100.00;102466.63;5007359;28;20069;-76
2023/03/04 07:21:26;;;;;;;4.15;0.80;;;;;;;4.23;100.00;102457.91;4986795;28;20076;-76
2023/03/04 07:23:51;;;;;;;7.53;1.23;;;;;;;4.25;100.00;102466.66;4981427;28;20592;-77
2023/03/04 07:26:17;;;;;;;4.95;1.10;;;;;;;4.28;100.00;102475.44;5008255;28;20068;-76
2023/03/04 07:28:43;;;;;;;4.65;1.58;;;;;;;4.30;100.00;102472.81;5003758;28;20064;-76
2023/03/04 07:31:22;;;;;;;2.58;1.05;;;;;;;4.33;100.00;102478.06;5004363;28;20581;-77
2023/03/04 07:33:48;;;;;;;4.72;1.33;;;;;;;4.38;100.00;102485.97;5004598;28;20042;-77
2023/03/04 07:36:14;;;;;;;4.40;0.95;;;;;;;4.42;100.00;102498.25;4977657;28;20741;-77
2023/03/04 07:38:47;;;;;;;3.13;0.90;;;;;;;4.42;100.00;102499.09;5003821;28;20037;-76
2023/03/04 07:41:13;;;;;;;5.75;0.73;;;;;;;4.44;100.00;102497.41;5006001;28;20041;-77
2023/03/04 07:43:39;;;;;;;1.15;0.70;;;;;;;4.44;100.00;102488.63;4983281;28;20439;-77
2023/03/04 07:46:04;;;;;;;2.33;1.00;;;;;;;4.46;100.00;102490.41;5001876;28;20044;-77
2023/03/04 07:48:30;;;;;;;1.30;0.77;;;;;;;4.49;100.00;102495.66;4987960;28;20091;-77
2023/03/04 07:51:10;;;;;;;1.08;0.98;;;;;;;4.53;100.00;102500.94;4972886;28;20041;-77
2023/03/04 07:53:37;;;;;;;6.13;0.90;;;;;;;4.52;100.00;102494.81;5009192;28;20445;-77
2023/03/04 07:56:03;;;;;;;3.58;0.90;;;;;;;4.51;100.00;102508.78;4987961;28;20037;-77
2023/03/04 07:58:29;;;;;;;3.10;0.80;;;;;;;4.47;100.00;102512.28;4967273;28;20042;-77
2023/03/04 08:00:55;;;;;;;0.90;0.82;;;;;;;4.41;100.00;102502.59;4985952;28;20041;-77
2023/03/04 08:03:20;;;;;;;5.78;1.13;;;;;;;4.41;100.00;102501.75;5010096;28;20515;-77
2023/03/04 08:05:46;;;;;;;4.50;1.08;;;;;;;4.40;100.00;102506.09;5010176;28;20025;-77
2023/03/04 08:08:11;;;;;;;3.95;0.93;;;;;;;4.42;100.00;102512.22;4988634;28;20042;-77
2023/03/04 08:10:38;;;;;;;4.13;0.90;;;;;;;4.45;100.00;102499.16;5008274;28;20095;-77
2023/03/04 08:13:07;;;;;;;3.55;0.70;;;;;;;4.47;100.00;102512.28;5008200;28;20048;-77
2023/03/04 08:15:34;;;;;;;8.80;0.82;;;;;;;4.51;100.00;102503.53;4984214;28;20751;-77
2023/03/04 08:18:00;;;;;;;4.35;1.40;;;;;;;4.54;100.00;102516.69;5005188;28;20503;-77
2023/03/04 08:20:26;;;;;;;3.20;0.90;;;;;;;4.59;100.00;102517.56;4959269;28;20164;-77
2023/03/04 08:22:52;;;;;;;6.28;1.00;;;;;;;4.65;100.00;102506.25;5007885;28;20042;-77
2023/03/04 08:25:17;;;;;;;5.93;0.90;;;;;;;4.71;100.00;102511.56;5007101;28;20186;-76
2023/03/04 08:27:43;;;;;;;2.30;0.70;;;;;;;4.75;100.00;102512.44;5008298;28;20038;-77
2023/03/04 08:30:09;;;;;;;2.22;0.90;;;;;;;4.82;100.00;102510.72;4974119;28;20489;-77
2023/03/04 08:32:35;;;;;;;1.33;0.63;;;;;;;4.85;100.00;102508.13;4989294;28;20071;-77
2023/03/04 08:35:01;;;;;;;3.13;0.77;;;;;;;4.88;100.00;102510.75;4985609;28;20125;-77
2023/03/04 08:37:28;;;;;;;0.90;0.68;;;;;;;4.93;100.00;102516.03;4961602;28;20113;-77
2023/03/04 08:39:54;;;;;;;1.92;0.70;;;;;;;4.96;100.00;102513.44;4961168;28;20045;-77
2023/03/04 08:42:27;;;;;;;2.83;0.80;;;;;;;4.97;100.00;102516.03;4966888;28;20086;-77
2023/03/04 08:44:52;;;;;;;1.50;0.82;;;;;;;4.99;100.00;102513.44;4968083;28;20073;-77
2023/03/04 08:47:18;;;;;;;4.93;0.90;;;;;;;5.01;100.00;102525.69;4967812;28;20034;-77
2023/03/04 08:49:43;;;;;;;3.45;1.00;;;;;;;4.98;100.00;102520.44;4968395;28;20058;-77
2023/03/04 08:52:09;;;;;;;3.97;1.13;;;;;;;4.94;100.00;102516.03;4966404;28;20935;-78
2023/03/04 08:54:34;;;;;;;6.13;1.13;;;;;;;4.91;100.00;102513.41;4969111;28;20177;-77
2023/03/04 08:57:00;;;;;;;3.65;1.13;;;;;;;4.91;100.00;102505.53;4967692;28;20121;-77
2023/03/04 08:59:25;;;;;;;6.53;1.27;;;;;;;4.93;100.00;102516.91;4970275;28;20093;-77
2023/03/04 09:01:51;;;;;;;5.72;1.33;;;;;;;4.96;100.00;102514.28;4967445;28;20788;-77
2023/03/04 09:04:16;;;;;;;9.65;1.73;;;;;;;5.01;100.00;102509.09;4968675;28;20041;-77
2023/03/04 09:06:42;;;;;;;8.55;1.52;;;;;;;5.05;100.00;102516.09;4968883;28;20042;-77
2023/03/04 09:09:07;;;;;;;6.35;1.58;;;;;;;5.08;100.00;102523.09;4966898;28;20121;-77
2023/03/04 09:11:33;;;;;;;7.32;1.30;;;;;;;5.08;100.00;102529.25;4968529;28;20034;-78
2023/03/04 09:13:59;;;;;;;4.32;1.10;;;;;;;5.06;100.00;102530.97;4968532;28;20492;-77
2023/03/04 09:16:24;;;;;;;6.72;1.33;;;;;;;5.02;100.00;102537.94;4969074;28;20069;-77
2023/03/04 09:18:50;;;;;;;6.57;1.33;;;;;;;4.97;100.00;102518.66;4966435;28;20042;-78
2023/03/04 09:21:15;;;;;;;4.47;1.05;;;;;;;4.99;100.00;102521.31;4966658;28;20593;-77
2023/03/04 09:23:41;;;;;;;8.95;1.42;;;;;;;5.00;100.00;102523.94;4968550;28;20129;-78
2023/03/04 09:26:20;;;;;;;7.35;1.05;;;;;;;5.05;100.00;102520.47;4968495;28;20066;-78
2023/03/04 09:28:52;;;;;;;8.48;1.35;;;;;;;5.10;100.00;102521.34;4965274;28;20494;-78
2023/03/04 09:31:18;;;;;;;4.32;1.10;;;;;;;5.14;100.00;102528.38;4982575;28;20041;-77
2023/03/04 09:33:43;;;;;;;4.60;1.45;;;;;;;5.19;100.00;102537.16;4966937;28;20635;-78
2023/03/04 09:36:10;;;;;;;11.15;2.78;;;;;;;5.22;100.00;102525.81;4964786;28;20428;-77
2023/03/04 09:38:37;;;;;;;7.93;1.83;;;;;;;5.23;100.00;102530.19;4968987;28;20093;-78
2023/03/04 09:41:06;;;;;;;7.50;1.33;;;;;;;5.23;100.00;102530.19;4963406;28;20060;-77
2023/03/04 09:43:32;;;;;;;9.38;1.48;;;;;;;5.25;100.00;102538.94;4984096;28;20053;-78
2023/03/04 09:46:05;;;;;;;11.98;2.28;;;;;;;5.23;100.00;102515.28;4984367;28;20045;-77
2023/03/04 09:48:41;;;;;;;7.05;1.60;;;;;;;5.26;100.00;102528.44;4983808;28;20169;-77
2023/03/04 09:51:28;;;;;;;5.63;1.25;;;;;;;5.27;100.00;102530.19;5007332;28;20048;-77
2023/03/04 09:54:13;;;;;;;9.60;1.63;;;;;;;5.29;100.00;102535.47;5004014;28;20504;-77
2023/03/04 09:56:42;;;;;;;4.70;1.10;;;;;;;5.30;100.00;102535.44;5006467;28;20053;-77
2023/03/04 09:59:47;;;;;;;8.98;1.77;;;;;;;5.32;100.00;102531.97;5007472;28;20047;-77
2023/03/04 10:02:19;;;;;;;7.25;1.25;;;;;;;5.34;100.00;102527.59;4981492;28;21126;-77
2023/03/04 10:04:52;;;;;;;7.28;1.20;;;;;;;5.35;100.00;102524.97;4972180;28;20603;-78
2023/03/04 10:07:28;;;;;;;3.05;0.90;;;;;;;5.35;100.00;102529.34;4986077;28;20236;-78
2023/03/04 10:09:58;;;;;;;3.38;1.10;;;;;;;5.37;100.00;102524.97;4966930;28;20033;-78
2023/03/04 10:12:29;;;;;;;7.00;0.88;;;;;;;5.39;100.00;102528.50;4980876;28;21386;-77
2023/03/04 10:15:04;;;;;;;8.15;1.73;;;;;;;5.41;100.00;102518.84;4965966;28;20048;-78
2023/03/04 10:17:35;;;;;;;4.18;1.20;;;;;;;5.43;100.00;102522.34;4985929;28;20037;-77
2023/03/04 10:20:17;;;;;;;9.95;1.52;;;;;;;5.44;100.00;102529.34;4981600;28;20488;-77
2023/03/04 10:22:51;;;;;;;3.25;1.13;;;;;;;5.46;100.00;102532.00;4980657;28;20945;-78
2023/03/04 10:25:24;;;;;;;6.57;1.27;;;;;;;5.38;100.00;102535.47;4997808;28;20107;-78
2023/03/04 10:28:08;;;;;;;;;;;;;;;5.33;100.00;102536.34;4982284;28;20131;-77
2023/03/04 10:31:01;;;;;;;6.05;0.95;;;;;;;5.33;100.00;102526.69;4989014;28;19929;-78
2023/03/04 10:33:30;;;;;;;8.33;0.97;;;;;;;5.34;100.00;102538.97;5005407;28;20042;-77
2023/03/04 10:36:35;;;;;;;1.48;0.90;;;;;;;5.39;100.00;102539.00;5074909;27;20578;-78
2023/03/04 10:39:05;;;;;;;2.85;1.25;;;;;;;5.41;100.00;102535.47;5054799;28;20052;-77
2023/03/04 10:41:31;;;;;;;1.67;0.75;;;;;;;5.45;100.00;102536.38;5088367;27;20374;-78
2023/03/04 10:44:01;;;;;;;4.57;0.90;;;;;;;5.44;100.00;102538.13;5073492;28;20123;-77
2023/03/04 10:46:28;;;;;;;3.50;0.82;;;;;;;5.47;100.00;102537.28;5074111;28;20062;-77
2023/03/04 10:48:54;;;;;;;1.88;0.50;;;;;;;5.54;100.00;102525.00;5073811;28;20515;-77
2023/03/04 10:51:22;;;;;;;2.17;0.90;;;;;;;5.66;100.00;102526.81;5073746;28;20097;-78
2023/03/04 10:53:50;;;;;;;2.17;0.60;;;;;;;5.72;100.00;102529.44;5106193;27;20052;-77
2023/03/04 10:56:34;;;;;;;1.05;0.70;;;;;;;5.71;100.00;102527.69;5072751;28;20067;-78
2023/03/04 10:59:31;;;;;;;5.50;1.05;;;;;;;5.66;100.00;102534.69;5075249;28;20042;-78
2023/03/04 11:02:01;;;;;;;2.97;0.90;;;;;;;5.65;100.00;102530.28;5074452;28;20588;-77
2023/03/04 11:04:32;;;;;;;1.80;0.80;;;;;;;5.66;100.00;102530.31;5072852;28;20086;-77
2023/03/04 11:06:58;;;;;;;5.05;1.15;;;;;;;5.70;100.00;102518.03;5075262;28;20742;-77
2023/03/04 11:09:29;;;;;;;5.07;1.20;;;;;;;5.74;100.00;102517.19;5074698;28;20518;-77
2023/03/04 11:11:59;;;;;;;3.17;1.08;;;;;;;5.83;100.00;102511.06;5073362;27;20035;-77
2023/03/04 11:14:36;;;;;;;4.03;1.02;;;;;;;5.90;100.00;102501.44;5071748;28;20036;-77
2023/03/04 11:18:00;;;;;;;2.63;0.90;;;;;;;5.94;100.00;102513.72;5071666;28;20040;-77
2023/03/04 11:20:33;;;;;;;;;;;;;;;5.92;100.00;102504.91;5047073;28;20407;-77
2023/03/04 11:23:04;;;;;;;4.60;1.00;;;;;;;5.93;100.00;102518.06;5074583;28;19925;-77
2023/03/04 11:25:39;;;;;;;4.22;1.00;;;;;;;5.91;100.00;102509.31;5061523;28;20442;-78
2023/03/04 11:28:19;;;;;;;4.55;1.63;;;;;;;5.89;100.00;102513.69;5065196;28;20036;-77
2023/03/04 11:30:49;;;;;;;4.75;1.00;;;;;;;5.91;100.00;102513.69;5077924;28;20031;-77